sensor_id;sensor_type;location;lat;lon;timestamp;P1;durP1;ratioP1;P2;durP2;ratioP2
56122;SDS011;42426;46.104;19.656;2023-04-05T00:01:40;8.18;;;5.22;;
56122;SDS011;42426;46.104;19.656;2023-04-05T00:04:07;8.57;;;4.70;;
56122;SDS011;42426;46.104;19.656;2023-04-05T00:06:33;8.23;;;5.43;;
56122;SDS011;42426;46.104;19.656;2023-04-05T00:09:00;9.65;;;5.32;;
56122;SDS011;42426;46.104;19.656;2023-04-05T00:11:28;10.07;;;5.00;;
56122;SDS011;42426;46.104;19.656;2023-04-05T00:14:01;9.60;;;6.30;;
56122;SDS011;42426;46.104;19.656;2023-04-05T00:16:29;9.18;;;5.68;;
56122;SDS011;42426;46.104;19.656;2023-04-05T00:18:55;14.38;;;6.03;;
56122;SDS011;42426;46.104;19.656;2023-04-05T00:21:22;9.68;;;5.50;;
56122;SDS011;42426;46.104;19.656;2023-04-05T00:23:48;7.95;;;5.15;;
56122;SDS011;42426;46.104;19.656;2023-04-05T00:26:15;8.38;;;5.78;;
56122;SDS011;42426;46.104;19.656;2023-04-05T00:28:42;11.63;;;5.50;;
56122;SDS011;42426;46.104;19.656;2023-04-05T00:31:09;11.40;;;6.18;;
56122;SDS011;42426;46.104;19.656;2023-04-05T00:33:36;9.70;;;5.63;;
56122;SDS011;42426;46.104;19.656;2023-04-05T00:36:08;7.80;;;4.88;;
56122;SDS011;42426;46.104;19.656;2023-04-05T00:38:38;8.93;;;5.72;;
56122;SDS011;42426;46.104;19.656;2023-04-05T00:41:04;11.27;;;5.97;;
56122;SDS011;42426;46.104;19.656;2023-04-05T00:43:30;8.52;;;5.78;;
56122;SDS011;42426;46.104;19.656;2023-04-05T00:45:56;11.13;;;5.68;;
56122;SDS011;42426;46.104;19.656;2023-04-05T00:48:22;10.30;;;6.45;;
56122;SDS011;42426;46.104;19.656;2023-04-05T00:50:49;8.20;;;5.78;;
56122;SDS011;42426;46.104;19.656;2023-04-05T00:53:16;9.43;;;5.97;;
56122;SDS011;42426;46.104;19.656;2023-04-05T00:55:43;7.18;;;5.22;;
56122;SDS011;42426;46.104;19.656;2023-04-05T00:58:13;8.85;;;5.45;;
56122;SDS011;42426;46.104;19.656;2023-04-05T01:01:06;9.05;;;6.28;;
56122;SDS011;42426;46.104;19.656;2023-04-05T01:03:48;9.27;;;5.93;;
56122;SDS011;42426;46.104;19.656;2023-04-05T01:09:11;11.10;;;5.85;;
56122;SDS011;42426;46.104;19.656;2023-04-05T01:11:47;7.57;;;5.95;;
56122;SDS011;42426;46.104;19.656;2023-04-05T01:14:13;8.73;;;6.28;;
56122;SDS011;42426;46.104;19.656;2023-04-05T01:16:39;7.10;;;5.53;;
56122;SDS011;42426;46.104;19.656;2023-04-05T01:19:05;10.55;;;5.82;;
56122;SDS011;42426;46.104;19.656;2023-04-05T01:24:05;8.70;;;5.85;;
56122;SDS011;42426;46.104;19.656;2023-04-05T01:37:50;7.82;;;5.13;;
56122;SDS011;42426;46.104;19.656;2023-04-05T01:40:20;9.00;;;5.07;;
56122;SDS011;42426;46.104;19.656;2023-04-05T01:42:47;9.52;;;5.35;;
56122;SDS011;42426;46.104;19.656;2023-04-05T01:45:13;8.85;;;5.43;;
56122;SDS011;42426;46.104;19.656;2023-04-05T01:47:38;8.20;;;5.22;;
56122;SDS011;42426;46.104;19.656;2023-04-05T01:50:04;12.60;;;5.43;;
56122;SDS011;42426;46.104;19.656;2023-04-05T01:52:30;8.98;;;4.63;;
56122;SDS011;42426;46.104;19.656;2023-04-05T01:54:56;8.68;;;5.85;;
56122;SDS011;42426;46.104;19.656;2023-04-05T01:57:22;12.63;;;5.32;;
56122;SDS011;42426;46.104;19.656;2023-04-05T01:59:48;7.50;;;4.68;;
56122;SDS011;42426;46.104;19.656;2023-04-05T02:02:13;8.23;;;5.05;;
56122;SDS011;42426;46.104;19.656;2023-04-05T02:04:41;11.43;;;5.57;;
56122;SDS011;42426;46.104;19.656;2023-04-05T02:07:07;9.30;;;5.35;;
56122;SDS011;42426;46.104;19.656;2023-04-05T02:09:33;8.18;;;5.22;;
56122;SDS011;42426;46.104;19.656;2023-04-05T02:11:58;7.45;;;5.13;;
56122;SDS011;42426;46.104;19.656;2023-04-05T02:14:25;7.93;;;5.40;;
56122;SDS011;42426;46.104;19.656;2023-04-05T02:16:51;8.73;;;5.45;;
56122;SDS011;42426;46.104;19.656;2023-04-05T02:19:20;12.98;;;6.50;;
56122;SDS011;42426;46.104;19.656;2023-04-05T02:21:50;7.60;;;5.10;;
56122;SDS011;42426;46.104;19.656;2023-04-05T02:24:18;9.55;;;5.70;;
56122;SDS011;42426;46.104;19.656;2023-04-05T02:26:43;9.98;;;5.80;;
56122;SDS011;42426;46.104;19.656;2023-04-05T02:29:09;9.63;;;5.28;;
56122;SDS011;42426;46.104;19.656;2023-04-05T02:31:35;9.45;;;6.25;;
56122;SDS011;42426;46.104;19.656;2023-04-05T02:34:01;7.75;;;5.07;;
56122;SDS011;42426;46.104;19.656;2023-04-05T02:36:27;10.18;;;5.05;;
56122;SDS011;42426;46.104;19.656;2023-04-05T02:38:53;8.25;;;5.22;;
56122;SDS011;42426;46.104;19.656;2023-04-05T02:41:19;8.65;;;5.35;;
56122;SDS011;42426;46.104;19.656;2023-04-05T02:43:46;8.15;;;5.38;;
56122;SDS011;42426;46.104;19.656;2023-04-05T02:46:12;12.27;;;5.82;;
56122;SDS011;42426;46.104;19.656;2023-04-05T02:48:38;9.52;;;5.10;;
56122;SDS011;42426;46.104;19.656;2023-04-05T02:51:03;9.52;;;5.38;;
56122;SDS011;42426;46.104;19.656;2023-04-05T02:53:30;9.07;;;6.13;;
56122;SDS011;42426;46.104;19.656;2023-04-05T02:55:56;5.82;;;5.22;;
56122;SDS011;42426;46.104;19.656;2023-04-05T02:58:23;9.32;;;5.30;;
56122;SDS011;42426;46.104;19.656;2023-04-05T03:00:49;8.93;;;5.40;;
56122;SDS011;42426;46.104;19.656;2023-04-05T03:03:17;7.65;;;5.10;;
56122;SDS011;42426;46.104;19.656;2023-04-05T03:05:43;7.40;;;5.00;;
56122;SDS011;42426;46.104;19.656;2023-04-05T03:08:12;8.75;;;5.55;;
56122;SDS011;42426;46.104;19.656;2023-04-05T03:10:43;8.32;;;5.75;;
56122;SDS011;42426;46.104;19.656;2023-04-05T03:13:10;10.00;;;5.05;;
56122;SDS011;42426;46.104;19.656;2023-04-05T03:15:35;9.27;;;5.25;;
56122;SDS011;42426;46.104;19.656;2023-04-05T03:18:01;8.15;;;5.22;;
56122;SDS011;42426;46.104;19.656;2023-04-05T03:20:27;9.50;;;5.50;;
56122;SDS011;42426;46.104;19.656;2023-04-05T03:22:52;11.07;;;6.57;;
56122;SDS011;42426;46.104;19.656;2023-04-05T03:25:18;7.30;;;5.53;;
56122;SDS011;42426;46.104;19.656;2023-04-05T03:27:46;8.48;;;5.15;;
56122;SDS011;42426;46.104;19.656;2023-04-05T03:30:11;9.23;;;5.65;;
56122;SDS011;42426;46.104;19.656;2023-04-05T03:32:37;9.55;;;5.57;;
56122;SDS011;42426;46.104;19.656;2023-04-05T03:35:03;9.40;;;5.63;;
56122;SDS011;42426;46.104;19.656;2023-04-05T03:37:30;8.57;;;4.95;;
56122;SDS011;42426;46.104;19.656;2023-04-05T03:39:56;10.73;;;6.70;;
56122;SDS011;42426;46.104;19.656;2023-04-05T03:42:21;9.23;;;5.43;;
56122;SDS011;42426;46.104;19.656;2023-04-05T03:44:49;11.63;;;5.60;;
56122;SDS011;42426;46.104;19.656;2023-04-05T03:47:16;7.15;;;5.07;;
56122;SDS011;42426;46.104;19.656;2023-04-05T03:49:42;7.30;;;5.32;;
56122;SDS011;42426;46.104;19.656;2023-04-05T03:52:08;8.30;;;5.50;;
56122;SDS011;42426;46.104;19.656;2023-04-05T03:54:34;10.32;;;5.85;;
56122;SDS011;42426;46.104;19.656;2023-04-05T03:57:01;11.50;;;5.85;;
56122;SDS011;42426;46.104;19.656;2023-04-05T03:59:27;9.85;;;5.72;;
56122;SDS011;42426;46.104;19.656;2023-04-05T04:01:52;10.15;;;5.80;;
56122;SDS011;42426;46.104;19.656;2023-04-05T04:04:18;8.05;;;5.55;;
56122;SDS011;42426;46.104;19.656;2023-04-05T04:06:44;10.50;;;6.13;;
56122;SDS011;42426;46.104;19.656;2023-04-05T04:09:10;10.15;;;5.85;;
56122;SDS011;42426;46.104;19.656;2023-04-05T04:11:36;7.45;;;5.90;;
56122;SDS011;42426;46.104;19.656;2023-04-05T04:14:02;8.65;;;6.28;;
56122;SDS011;42426;46.104;19.656;2023-04-05T04:16:27;13.00;;;6.35;;
56122;SDS011;42426;46.104;19.656;2023-04-05T04:18:53;8.50;;;5.78;;
56122;SDS011;42426;46.104;19.656;2023-04-05T04:21:19;13.80;;;6.60;;
56122;SDS011;42426;46.104;19.656;2023-04-05T04:23:49;8.93;;;6.05;;
56122;SDS011;42426;46.104;19.656;2023-04-05T04:26:19;12.27;;;5.95;;
56122;SDS011;42426;46.104;19.656;2023-04-05T04:28:53;9.50;;;6.00;;
56122;SDS011;42426;46.104;19.656;2023-04-05T04:31:19;13.38;;;7.70;;
56122;SDS011;42426;46.104;19.656;2023-04-05T04:33:49;10.23;;;7.22;;
56122;SDS011;42426;46.104;19.656;2023-04-05T04:36:15;14.68;;;9.63;;
56122;SDS011;42426;46.104;19.656;2023-04-05T04:38:42;13.80;;;9.45;;
56122;SDS011;42426;46.104;19.656;2023-04-05T04:41:13;13.93;;;8.73;;
56122;SDS011;42426;46.104;19.656;2023-04-05T04:43:39;13.50;;;8.05;;
56122;SDS011;42426;46.104;19.656;2023-04-05T04:46:08;15.43;;;7.80;;
56122;SDS011;42426;46.104;19.656;2023-04-05T04:48:45;12.07;;;7.13;;
56122;SDS011;42426;46.104;19.656;2023-04-05T04:51:11;12.88;;;7.40;;
56122;SDS011;42426;46.104;19.656;2023-04-05T04:53:37;10.65;;;6.70;;
56122;SDS011;42426;46.104;19.656;2023-04-05T04:56:06;11.48;;;6.70;;
56122;SDS011;42426;46.104;19.656;2023-04-05T04:58:32;15.07;;;7.57;;
56122;SDS011;42426;46.104;19.656;2023-04-05T05:00:58;14.15;;;8.50;;
56122;SDS011;42426;46.104;19.656;2023-04-05T05:03:24;15.00;;;7.78;;
56122;SDS011;42426;46.104;19.656;2023-04-05T05:05:50;11.40;;;7.20;;
56122;SDS011;42426;46.104;19.656;2023-04-05T05:08:17;12.80;;;7.25;;
56122;SDS011;42426;46.104;19.656;2023-04-05T05:10:43;12.10;;;7.05;;
56122;SDS011;42426;46.104;19.656;2023-04-05T05:13:09;12.70;;;7.80;;
56122;SDS011;42426;46.104;19.656;2023-04-05T05:15:35;17.48;;;9.27;;
56122;SDS011;42426;46.104;19.656;2023-04-05T05:18:02;23.77;;;11.82;;
56122;SDS011;42426;46.104;19.656;2023-04-05T05:20:28;14.52;;;8.43;;
56122;SDS011;42426;46.104;19.656;2023-04-05T05:22:54;23.05;;;11.27;;
56122;SDS011;42426;46.104;19.656;2023-04-05T05:25:20;19.20;;;10.27;;
56122;SDS011;42426;46.104;19.656;2023-04-05T05:27:49;25.70;;;12.60;;
56122;SDS011;42426;46.104;19.656;2023-04-05T05:30:15;15.98;;;9.88;;
56122;SDS011;42426;46.104;19.656;2023-04-05T05:32:42;16.13;;;9.82;;
56122;SDS011;42426;46.104;19.656;2023-04-05T05:35:07;19.38;;;10.45;;
56122;SDS011;42426;46.104;19.656;2023-04-05T05:37:33;17.25;;;9.27;;
56122;SDS011;42426;46.104;19.656;2023-04-05T05:40:01;17.73;;;10.40;;
56122;SDS011;42426;46.104;19.656;2023-04-05T05:42:29;14.57;;;9.02;;
56122;SDS011;42426;46.104;19.656;2023-04-05T05:44:56;24.90;;;12.07;;
56122;SDS011;42426;46.104;19.656;2023-04-05T05:47:25;13.38;;;8.60;;
56122;SDS011;42426;46.104;19.656;2023-04-05T05:49:50;14.95;;;8.65;;
56122;SDS011;42426;46.104;19.656;2023-04-05T05:52:17;15.50;;;9.00;;
56122;SDS011;42426;46.104;19.656;2023-04-05T05:54:43;21.33;;;9.95;;
56122;SDS011;42426;46.104;19.656;2023-04-05T05:57:10;18.90;;;9.45;;
56122;SDS011;42426;46.104;19.656;2023-04-05T05:59:35;12.70;;;7.90;;
56122;SDS011;42426;46.104;19.656;2023-04-05T06:02:01;18.80;;;9.25;;
56122;SDS011;42426;46.104;19.656;2023-04-05T06:04:27;18.63;;;10.52;;
56122;SDS011;42426;46.104;19.656;2023-04-05T06:06:53;21.60;;;11.00;;
56122;SDS011;42426;46.104;19.656;2023-04-05T06:09:19;16.67;;;9.88;;
56122;SDS011;42426;46.104;19.656;2023-04-05T06:11:53;18.27;;;9.48;;
56122;SDS011;42426;46.104;19.656;2023-04-05T06:14:20;13.52;;;8.73;;
56122;SDS011;42426;46.104;19.656;2023-04-05T06:16:48;20.45;;;13.50;;
56122;SDS011;42426;46.104;19.656;2023-04-05T06:19:14;16.75;;;9.02;;
56122;SDS011;42426;46.104;19.656;2023-04-05T06:21:40;17.05;;;8.75;;
56122;SDS011;42426;46.104;19.656;2023-04-05T06:24:05;25.67;;;13.13;;
56122;SDS011;42426;46.104;19.656;2023-04-05T06:26:31;17.95;;;9.23;;
56122;SDS011;42426;46.104;19.656;2023-04-05T06:28:57;18.40;;;10.82;;
56122;SDS011;42426;46.104;19.656;2023-04-05T06:31:31;18.40;;;11.27;;
56122;SDS011;42426;46.104;19.656;2023-04-05T06:33:58;16.63;;;9.65;;
56122;SDS011;42426;46.104;19.656;2023-04-05T06:36:24;15.93;;;8.38;;
56122;SDS011;42426;46.104;19.656;2023-04-05T06:38:50;12.80;;;7.75;;
56122;SDS011;42426;46.104;19.656;2023-04-05T06:41:16;13.05;;;6.78;;
56122;SDS011;42426;46.104;19.656;2023-04-05T06:43:42;12.13;;;7.55;;
56122;SDS011;42426;46.104;19.656;2023-04-05T06:46:08;10.98;;;7.50;;
56122;SDS011;42426;46.104;19.656;2023-04-05T06:48:36;11.90;;;7.38;;
56122;SDS011;42426;46.104;19.656;2023-04-05T06:51:02;10.77;;;7.38;;
56122;SDS011;42426;46.104;19.656;2023-04-05T06:53:28;12.02;;;7.30;;
56122;SDS011;42426;46.104;19.656;2023-04-05T06:55:57;10.90;;;6.78;;
56122;SDS011;42426;46.104;19.656;2023-04-05T06:58:25;13.40;;;8.15;;
56122;SDS011;42426;46.104;19.656;2023-04-05T07:00:51;15.00;;;8.43;;
56122;SDS011;42426;46.104;19.656;2023-04-05T07:03:17;13.60;;;6.47;;
56122;SDS011;42426;46.104;19.656;2023-04-05T07:05:56;9.68;;;6.00;;
56122;SDS011;42426;46.104;19.656;2023-04-05T07:08:26;9.68;;;6.70;;
56122;SDS011;42426;46.104;19.656;2023-04-05T07:10:53;13.50;;;7.50;;
56122;SDS011;42426;46.104;19.656;2023-04-05T07:13:20;13.45;;;7.25;;
56122;SDS011;42426;46.104;19.656;2023-04-05T07:15:46;14.88;;;7.57;;
56122;SDS011;42426;46.104;19.656;2023-04-05T07:18:12;12.98;;;7.50;;
56122;SDS011;42426;46.104;19.656;2023-04-05T07:20:40;11.65;;;7.40;;
56122;SDS011;42426;46.104;19.656;2023-04-05T07:23:06;14.35;;;6.47;;
56122;SDS011;42426;46.104;19.656;2023-04-05T07:25:32;8.82;;;6.10;;
56122;SDS011;42426;46.104;19.656;2023-04-05T07:27:58;9.07;;;5.95;;
56122;SDS011;42426;46.104;19.656;2023-04-05T07:30:27;10.88;;;6.07;;
56122;SDS011;42426;46.104;19.656;2023-04-05T07:32:53;11.32;;;6.47;;
56122;SDS011;42426;46.104;19.656;2023-04-05T07:35:19;10.88;;;6.85;;
56122;SDS011;42426;46.104;19.656;2023-04-05T07:37:45;11.95;;;6.60;;
56122;SDS011;42426;46.104;19.656;2023-04-05T07:40:10;9.50;;;6.38;;
56122;SDS011;42426;46.104;19.656;2023-04-05T07:42:37;11.48;;;6.72;;
56122;SDS011;42426;46.104;19.656;2023-04-05T07:45:03;10.45;;;6.32;;
56122;SDS011;42426;46.104;19.656;2023-04-05T07:47:31;9.20;;;5.88;;
56122;SDS011;42426;46.104;19.656;2023-04-05T07:50:00;11.93;;;5.72;;
56122;SDS011;42426;46.104;19.656;2023-04-05T07:52:26;10.75;;;7.07;;
56122;SDS011;42426;46.104;19.656;2023-04-05T07:54:52;12.52;;;6.70;;
56122;SDS011;42426;46.104;19.656;2023-04-05T07:57:21;15.02;;;6.05;;
56122;SDS011;42426;46.104;19.656;2023-04-05T07:59:47;13.13;;;7.50;;
56122;SDS011;42426;46.104;19.656;2023-04-05T08:02:20;12.48;;;6.93;;
56122;SDS011;42426;46.104;19.656;2023-04-05T08:04:46;8.70;;;5.40;;
56122;SDS011;42426;46.104;19.656;2023-04-05T08:07:14;10.60;;;5.90;;
56122;SDS011;42426;46.104;19.656;2023-04-05T08:09:45;11.73;;;6.23;;
56122;SDS011;42426;46.104;19.656;2023-04-05T08:12:29;11.73;;;6.05;;
56122;SDS011;42426;46.104;19.656;2023-04-05T08:18:18;10.77;;;6.03;;
56122;SDS011;42426;46.104;19.656;2023-04-05T08:24:05;11.02;;;6.57;;
56122;SDS011;42426;46.104;19.656;2023-04-05T08:26:31;10.75;;;5.72;;
56122;SDS011;42426;46.104;19.656;2023-04-05T08:28:57;10.05;;;6.38;;
56122;SDS011;42426;46.104;19.656;2023-04-05T08:31:24;12.82;;;6.25;;
56122;SDS011;42426;46.104;19.656;2023-04-05T08:33:49;12.45;;;5.50;;
56122;SDS011;42426;46.104;19.656;2023-04-05T08:36:15;11.30;;;6.60;;
56122;SDS011;42426;46.104;19.656;2023-04-05T08:38:41;11.30;;;6.55;;
56122;SDS011;42426;46.104;19.656;2023-04-05T08:41:15;11.00;;;7.28;;
56122;SDS011;42426;46.104;19.656;2023-04-05T08:46:17;14.10;;;8.02;;
56122;SDS011;42426;46.104;19.656;2023-04-05T08:48:46;12.40;;;7.72;;
56122;SDS011;42426;46.104;19.656;2023-04-05T08:51:11;10.40;;;7.75;;
56122;SDS011;42426;46.104;19.656;2023-04-05T08:53:38;13.45;;;7.93;;
56122;SDS011;42426;46.104;19.656;2023-04-05T08:56:04;11.88;;;6.35;;
56122;SDS011;42426;46.104;19.656;2023-04-05T08:58:31;8.82;;;6.10;;
56122;SDS011;42426;46.104;19.656;2023-04-05T09:00:59;16.20;;;5.78;;
56122;SDS011;42426;46.104;19.656;2023-04-05T09:03:30;9.82;;;6.25;;
56122;SDS011;42426;46.104;19.656;2023-04-05T09:06:06;10.02;;;7.30;;
56122;SDS011;42426;46.104;19.656;2023-04-05T09:08:33;13.27;;;7.22;;
56122;SDS011;42426;46.104;19.656;2023-04-05T09:10:59;11.40;;;6.70;;
56122;SDS011;42426;46.104;19.656;2023-04-05T09:13:24;11.40;;;6.82;;
56122;SDS011;42426;46.104;19.656;2023-04-05T09:15:50;14.88;;;6.63;;
56122;SDS011;42426;46.104;19.656;2023-04-05T09:18:17;19.00;;;7.07;;
56122;SDS011;42426;46.104;19.656;2023-04-05T09:20:43;13.75;;;6.75;;
56122;SDS011;42426;46.104;19.656;2023-04-05T09:23:09;8.73;;;6.10;;
56122;SDS011;42426;46.104;19.656;2023-04-05T09:25:35;13.93;;;6.93;;
56122;SDS011;42426;46.104;19.656;2023-04-05T09:28:04;15.35;;;8.38;;
56122;SDS011;42426;46.104;19.656;2023-04-05T09:30:31;11.50;;;6.60;;
56122;SDS011;42426;46.104;19.656;2023-04-05T09:32:57;12.38;;;6.80;;
56122;SDS011;42426;46.104;19.656;2023-04-05T09:35:27;15.52;;;7.93;;
56122;SDS011;42426;46.104;19.656;2023-04-05T09:37:58;14.32;;;7.30;;
56122;SDS011;42426;46.104;19.656;2023-04-05T09:40:46;13.73;;;7.75;;
56122;SDS011;42426;46.104;19.656;2023-04-05T09:43:34;10.52;;;6.53;;
56122;SDS011;42426;46.104;19.656;2023-04-05T09:46:00;9.55;;;6.53;;
56122;SDS011;42426;46.104;19.656;2023-04-05T09:48:45;11.63;;;7.22;;
56122;SDS011;42426;46.104;19.656;2023-04-05T09:51:12;9.25;;;6.40;;
56122;SDS011;42426;46.104;19.656;2023-04-05T09:53:57;8.75;;;6.40;;
56122;SDS011;42426;46.104;19.656;2023-04-05T09:56:27;9.57;;;6.15;;
56122;SDS011;42426;46.104;19.656;2023-04-05T09:59:07;12.13;;;7.00;;
56122;SDS011;42426;46.104;19.656;2023-04-05T10:01:37;12.38;;;6.65;;
56122;SDS011;42426;46.104;19.656;2023-04-05T10:04:07;8.90;;;6.05;;
56122;SDS011;42426;46.104;19.656;2023-04-05T10:06:33;10.10;;;6.07;;
56122;SDS011;42426;46.104;19.656;2023-04-05T10:09:04;14.95;;;5.28;;
56122;SDS011;42426;46.104;19.656;2023-04-05T10:11:33;11.70;;;7.18;;
56122;SDS011;42426;46.104;19.656;2023-04-05T10:14:04;11.32;;;6.65;;
56122;SDS011;42426;46.104;19.656;2023-04-05T10:16:32;10.10;;;6.65;;
56122;SDS011;42426;46.104;19.656;2023-04-05T10:19:03;9.77;;;6.72;;
56122;SDS011;42426;46.104;19.656;2023-04-05T10:21:32;9.55;;;7.07;;
56122;SDS011;42426;46.104;19.656;2023-04-05T10:24:26;11.82;;;6.45;;
56122;SDS011;42426;46.104;19.656;2023-04-05T10:27:04;10.30;;;7.00;;
56122;SDS011;42426;46.104;19.656;2023-04-05T10:29:38;11.25;;;6.85;;
56122;SDS011;42426;46.104;19.656;2023-04-05T10:32:22;20.92;;;7.85;;
56122;SDS011;42426;46.104;19.656;2023-04-05T10:36:10;9.75;;;5.95;;
56122;SDS011;42426;46.104;19.656;2023-04-05T10:40:35;9.65;;;6.43;;
56122;SDS011;42426;46.104;19.656;2023-04-05T10:43:02;11.80;;;7.45;;
56122;SDS011;42426;46.104;19.656;2023-04-05T10:45:31;14.85;;;9.65;;
56122;SDS011;42426;46.104;19.656;2023-04-05T10:48:10;12.07;;;7.30;;
56122;SDS011;42426;46.104;19.656;2023-04-05T10:50:43;12.95;;;7.55;;
56122;SDS011;42426;46.104;19.656;2023-04-05T10:53:12;13.93;;;8.25;;
56122;SDS011;42426;46.104;19.656;2023-04-05T10:55:39;10.95;;;7.03;;
56122;SDS011;42426;46.104;19.656;2023-04-05T10:58:08;12.18;;;7.47;;
56122;SDS011;42426;46.104;19.656;2023-04-05T11:00:34;8.88;;;6.43;;
56122;SDS011;42426;46.104;19.656;2023-04-05T11:03:00;12.48;;;8.80;;
56122;SDS011;42426;46.104;19.656;2023-04-05T11:05:30;12.23;;;8.02;;
56122;SDS011;42426;46.104;19.656;2023-04-05T11:08:02;10.23;;;6.38;;
56122;SDS011;42426;46.104;19.656;2023-04-05T11:10:29;13.75;;;6.35;;
56122;SDS011;42426;46.104;19.656;2023-04-05T11:13:01;13.65;;;7.90;;
56122;SDS011;42426;46.104;19.656;2023-04-05T11:15:28;10.93;;;6.85;;
56122;SDS011;42426;46.104;19.656;2023-04-05T11:20:52;8.15;;;5.30;;
56122;SDS011;42426;46.104;19.656;2023-04-05T11:23:22;13.45;;;6.40;;
56122;SDS011;42426;46.104;19.656;2023-04-05T11:28:29;10.05;;;6.53;;
56122;SDS011;42426;46.104;19.656;2023-04-05T11:31:19;8.07;;;5.45;;
56122;SDS011;42426;46.104;19.656;2023-04-05T11:36:12;11.80;;;8.02;;
56122;SDS011;42426;46.104;19.656;2023-04-05T11:38:43;11.35;;;7.22;;
56122;SDS011;42426;46.104;19.656;2023-04-05T11:41:12;13.77;;;7.47;;
56122;SDS011;42426;46.104;19.656;2023-04-05T11:43:42;9.45;;;6.43;;
56122;SDS011;42426;46.104;19.656;2023-04-05T11:46:12;11.73;;;7.80;;
56122;SDS011;42426;46.104;19.656;2023-04-05T11:48:41;12.52;;;6.57;;
56122;SDS011;42426;46.104;19.656;2023-04-05T11:51:07;12.50;;;6.78;;
56122;SDS011;42426;46.104;19.656;2023-04-05T11:53:37;8.45;;;5.78;;
56122;SDS011;42426;46.104;19.656;2023-04-05T11:56:09;8.40;;;6.28;;
56122;SDS011;42426;46.104;19.656;2023-04-05T11:58:37;7.53;;;6.53;;
56122;SDS011;42426;46.104;19.656;2023-04-05T12:01:04;10.20;;;7.25;;
56122;SDS011;42426;46.104;19.656;2023-04-05T12:03:31;11.43;;;7.00;;
56122;SDS011;42426;46.104;19.656;2023-04-05T12:05:58;14.50;;;7.00;;
56122;SDS011;42426;46.104;19.656;2023-04-05T12:08:44;9.63;;;6.78;;
56122;SDS011;42426;46.104;19.656;2023-04-05T12:11:29;7.03;;;5.57;;
56122;SDS011;42426;46.104;19.656;2023-04-05T12:13:56;9.43;;;6.47;;
56122;SDS011;42426;46.104;19.656;2023-04-05T12:16:23;8.85;;;7.13;;
56122;SDS011;42426;46.104;19.656;2023-04-05T12:19:00;16.08;;;7.57;;
56122;SDS011;42426;46.104;19.656;2023-04-05T12:21:26;7.28;;;6.10;;
56122;SDS011;42426;46.104;19.656;2023-04-05T12:23:53;7.45;;;5.47;;
56122;SDS011;42426;46.104;19.656;2023-04-05T12:26:19;10.05;;;6.80;;
56122;SDS011;42426;46.104;19.656;2023-04-05T12:28:50;7.65;;;5.82;;
56122;SDS011;42426;46.104;19.656;2023-04-05T12:34:05;10.98;;;8.27;;
56122;SDS011;42426;46.104;19.656;2023-04-05T12:36:32;19.80;;;9.43;;
56122;SDS011;42426;46.104;19.656;2023-04-05T12:38:58;12.40;;;7.93;;
56122;SDS011;42426;46.104;19.656;2023-04-05T12:41:29;13.50;;;6.93;;
56122;SDS011;42426;46.104;19.656;2023-04-05T12:43:56;9.90;;;6.93;;
56122;SDS011;42426;46.104;19.656;2023-04-05T12:46:43;8.85;;;6.93;;
56122;SDS011;42426;46.104;19.656;2023-04-05T12:49:10;9.30;;;6.57;;
56122;SDS011;42426;46.104;19.656;2023-04-05T12:51:40;10.15;;;6.97;;
56122;SDS011;42426;46.104;19.656;2023-04-05T12:54:19;10.02;;;7.50;;
56122;SDS011;42426;46.104;19.656;2023-04-05T12:56:49;14.43;;;8.63;;
56122;SDS011;42426;46.104;19.656;2023-04-05T12:59:16;18.00;;;10.90;;
56122;SDS011;42426;46.104;19.656;2023-04-05T13:01:43;22.38;;;10.65;;
56122;SDS011;42426;46.104;19.656;2023-04-05T13:04:09;13.02;;;8.52;;
56122;SDS011;42426;46.104;19.656;2023-04-05T13:06:35;11.60;;;8.70;;
56122;SDS011;42426;46.104;19.656;2023-04-05T13:11:45;11.57;;;7.68;;
56122;SDS011;42426;46.104;19.656;2023-04-05T13:14:11;8.73;;;7.03;;
56122;SDS011;42426;46.104;19.656;2023-04-05T13:16:38;9.10;;;6.30;;
56122;SDS011;42426;46.104;19.656;2023-04-05T13:19:03;9.32;;;6.30;;
56122;SDS011;42426;46.104;19.656;2023-04-05T13:21:29;10.45;;;7.60;;
56122;SDS011;42426;46.104;19.656;2023-04-05T13:23:55;13.70;;;7.32;;
56122;SDS011;42426;46.104;19.656;2023-04-05T13:26:20;9.25;;;6.57;;
56122;SDS011;42426;46.104;19.656;2023-04-05T13:28:46;8.60;;;7.55;;
56122;SDS011;42426;46.104;19.656;2023-04-05T13:31:12;11.57;;;6.72;;
56122;SDS011;42426;46.104;19.656;2023-04-05T13:33:37;9.27;;;6.90;;
56122;SDS011;42426;46.104;19.656;2023-04-05T13:36:04;12.57;;;6.70;;
56122;SDS011;42426;46.104;19.656;2023-04-05T13:38:30;11.60;;;6.22;;
56122;SDS011;42426;46.104;19.656;2023-04-05T13:40:56;8.43;;;6.57;;
56122;SDS011;42426;46.104;19.656;2023-04-05T13:43:21;13.65;;;8.65;;
56122;SDS011;42426;46.104;19.656;2023-04-05T13:45:47;11.70;;;7.53;;
56122;SDS011;42426;46.104;19.656;2023-04-05T13:48:13;8.45;;;6.07;;
56122;SDS011;42426;46.104;19.656;2023-04-05T13:50:41;10.13;;;6.97;;
56122;SDS011;42426;46.104;19.656;2023-04-05T13:53:06;9.77;;;7.15;;
56122;SDS011;42426;46.104;19.656;2023-04-05T13:55:34;10.25;;;7.15;;
56122;SDS011;42426;46.104;19.656;2023-04-05T13:58:01;8.93;;;7.13;;
56122;SDS011;42426;46.104;19.656;2023-04-05T14:00:27;11.20;;;6.80;;
56122;SDS011;42426;46.104;19.656;2023-04-05T14:02:52;9.63;;;6.10;;
56122;SDS011;42426;46.104;19.656;2023-04-05T14:05:18;8.20;;;6.32;;
56122;SDS011;42426;46.104;19.656;2023-04-05T14:07:44;9.57;;;5.97;;
56122;SDS011;42426;46.104;19.656;2023-04-05T14:10:10;9.80;;;6.30;;
56122;SDS011;42426;46.104;19.656;2023-04-05T14:12:37;12.65;;;8.80;;
56122;SDS011;42426;46.104;19.656;2023-04-05T14:15:03;12.57;;;8.50;;
56122;SDS011;42426;46.104;19.656;2023-04-05T14:17:29;14.10;;;8.18;;
56122;SDS011;42426;46.104;19.656;2023-04-05T14:19:55;14.13;;;8.10;;
56122;SDS011;42426;46.104;19.656;2023-04-05T14:22:22;14.95;;;8.00;;
56122;SDS011;42426;46.104;19.656;2023-04-05T14:24:48;12.98;;;7.47;;
56122;SDS011;42426;46.104;19.656;2023-04-05T14:27:14;7.97;;;6.30;;
56122;SDS011;42426;46.104;19.656;2023-04-05T14:29:40;12.23;;;6.25;;
56122;SDS011;42426;46.104;19.656;2023-04-05T14:32:06;9.15;;;6.85;;
56122;SDS011;42426;46.104;19.656;2023-04-05T14:34:32;12.70;;;6.82;;
56122;SDS011;42426;46.104;19.656;2023-04-05T14:36:58;15.32;;;8.48;;
56122;SDS011;42426;46.104;19.656;2023-04-05T14:39:24;13.25;;;8.50;;
56122;SDS011;42426;46.104;19.656;2023-04-05T14:41:50;12.70;;;8.18;;
56122;SDS011;42426;46.104;19.656;2023-04-05T14:44:16;17.70;;;10.88;;
56122;SDS011;42426;46.104;19.656;2023-04-05T14:46:44;12.38;;;8.10;;
56122;SDS011;42426;46.104;19.656;2023-04-05T14:49:10;10.82;;;7.97;;
56122;SDS011;42426;46.104;19.656;2023-04-05T14:51:36;16.90;;;9.13;;
56122;SDS011;42426;46.104;19.656;2023-04-05T14:54:01;16.95;;;9.00;;
56122;SDS011;42426;46.104;19.656;2023-04-05T14:56:27;10.50;;;7.25;;
56122;SDS011;42426;46.104;19.656;2023-04-05T14:58:53;11.60;;;8.15;;
56122;SDS011;42426;46.104;19.656;2023-04-05T15:01:19;11.57;;;7.57;;
56122;SDS011;42426;46.104;19.656;2023-04-05T15:03:45;9.27;;;6.97;;
56122;SDS011;42426;46.104;19.656;2023-04-05T15:06:13;10.38;;;6.95;;
56122;SDS011;42426;46.104;19.656;2023-04-05T15:08:40;11.35;;;7.03;;
56122;SDS011;42426;46.104;19.656;2023-04-05T15:11:06;10.07;;;6.60;;
56122;SDS011;42426;46.104;19.656;2023-04-05T15:13:32;8.38;;;6.93;;